KPUW/PUW METAR and TAF weather

Enter ICAO airport designator
Station Type Date Time Source
KPUW METAR 2020/09/18 15:53 UTC NOAA

KPUW 181553Z AUTO 06003KT 1SM R05/P6000FT HZ VV012 13/06 A2994 RMK AO2 SLP137 T01330061 TSNO


Station Type Date Time Source
KPUW Decoded METAR 2020/09/18 15:53 UTC NOAA

PULLMAN/MOSCOW RGNL AIRPORT , WA, United States (KPUW) 46-45N 117-07W 773M
Sep 18, 2020 - 11:53 AM EDT / 2020.09.18 1553 UTC
Wind: from the ENE (060 degrees) at 3 MPH (3 KT):0
Visibility: 1 mile(s):0
Sky conditions: obscured
Weather: haze
Temperature: 55.9 F (13.3 C)
Dew Point: 43.0 F (6.1 C)
Relative Humidity: 61%
Pressure (altimeter): 29.94 in. Hg (1013 hPa)
ob: KPUW 181553Z AUTO 06003KT 1SM R05/P6000FT HZ VV012 13/06 A2994 RMK AO2 SLP137 T01330061 TSNO
cycle: 16

Station Type Date Time Source
KPUW TAF 2020/09/18 14:54 UTC NOAA

TAF
AMD KPUW 181350Z 1814/1912 00000KT 1SM FU OVC010
TEMPO 1814/1816 VRB04KT 2SM OVC015
FM181600 26007KT 2SM HZ SCT020 BKN250
FM190000 27006KT 4SM HZ VCSH OVC100 PROB30 1900/1906 3SM -SHRA BR BKN060
FM190600 25009KT 5SM -SHRA BR BKN060

Example: see airport list